Pagrindinis puslapis
METAR-TAF:

METAR-TAF

Oro uostai :

Vidsel, Švedija

platuma: 65-52N, ilguma: 020-08E, Aukštis: 180 m

Dabartinis oras

Ataskaita buvo paskelbta 36 minutes, ne 06:20 UTC
Vėjas 14 kt iš Vakarų/Šiaurės Vakarų
Temperatūra -2°C
Drėgmė 63%
Slėgis 1013 hPa
Matomumas 10 km arba daugiau

METAR: ESPE 100620Z AUTO 30014KT 9999 FEW220/// M02/M08 Q1013

Laikas: 08:56 (06:56 UTC)


TAF: trūkstamas

Orai ataskaitas ir orų prognozės (METAR, TAF).

turimą stotys yra geltonos ir raudonos taškus žemėlapyje.

Perkelti pele per norėdami pamatyti stoties vardą.

Tada spustelėkite, norėdami matyti oro stebėjimo ir prognozės.

Norėdami pakeisti žemėlapį: spustelėkite ant žalios mygtukų su juodo kryžiaus žemyn,; žalią mygtuką su brūkšneliu, jei norite nutolinti; arba žalių rodyklių gretimoms žemėlapius.


METAR-TAF: